Time;durP1;ratioP1;P1;durP2;ratioP2;P2;SDS_P1;SDS_P2;PMS_P1;PMS_P2;Temp;Humidity;BMP_temperature;BMP_pressure;BME280_temperature;BME280_humidity;BME280_pressure;Samples;Min_cycle;Max_cycle;Signal;HPM_P1;HPM_P2
2023/11/28 00:00:40;;;;;;;7.53;4.15;;;;;;;;;;4877153;29;20057;-83
2023/11/28 00:03:10;;;;;;;8.73;4.10;;;;;;;;;;4877980;29;20048;-83
2023/11/28 00:05:40;;;;;;;6.93;3.90;;;;;;;;;;4879197;29;20045;-81
2023/11/28 00:08:12;;;;;;;10.65;4.50;;;;;;;;;;4880144;29;20060;-81
2023/11/28 00:10:43;;;;;;;6.47;3.28;;;;;;;;;;4883523;29;20865;-82
2023/11/28 00:13:14;;;;;;;7.00;3.80;;;;;;;;;;4882459;29;20057;-82
2023/11/28 00:15:44;;;;;;;10.43;4.20;;;;;;;;;;4886922;29;20151;-82
2023/11/28 00:18:14;;;;;;;8.30;4.50;;;;;;;;;;4880965;29;20057;-83
2023/11/28 00:20:44;;;;;;;9.18;4.85;;;;;;;;;;4880114;29;20427;-81
2023/11/28 00:23:15;;;;;;;9.65;4.72;;;;;;;;;;4878120;29;20053;-82
2023/11/28 00:25:46;;;;;;;10.05;4.80;;;;;;;;;;4879582;29;20063;-82
2023/11/28 00:28:16;;;;;;;13.32;5.70;;;;;;;;;;4896593;29;20063;-82
2023/11/28 00:30:48;;;;;;;12.15;5.43;;;;;;;;;;4896440;29;20053;-82
2023/11/28 00:33:18;;;;;;;11.60;5.18;;;;;;;;;;4880285;29;20048;-82
2023/11/28 00:35:50;;;;;;;19.42;4.82;;;;;;;;;;4896808;29;20373;-81
2023/11/28 00:38:21;;;;;;;16.98;5.07;;;;;;;;;;4878796;29;20103;-80
2023/11/28 00:40:52;;;;;;;16.55;6.68;;;;;;;;;;4895554;29;20048;-82
2023/11/28 00:43:23;;;;;;;18.52;5.75;;;;;;;;;;4877702;29;20056;-80
2023/11/28 00:45:53;;;;;;;17.02;5.20;;;;;;;;;;4878846;29;20400;-81
2023/11/28 00:48:24;;;;;;;19.15;5.28;;;;;;;;;;4895164;29;20340;-80
2023/11/28 00:50:55;;;;;;;18.25;5.25;;;;;;;;;;4895527;29;20075;-81
2023/11/28 00:53:25;;;;;;;20.88;6.45;;;;;;;;;;4893980;29;20076;-82
2023/11/28 00:55:57;;;;;;;18.58;5.82;;;;;;;;;;4860060;29;20464;-82
2023/11/28 00:58:29;;;;;;;19.70;6.05;;;;;;;;;;4875387;29;20053;-83
2023/11/28 01:00:59;;;;;;;22.55;7.03;;;;;;;;;;4877883;29;20071;-83
2023/11/28 01:03:29;;;;;;;20.27;6.80;;;;;;;;;;4859991;29;20511;-81
2023/11/28 01:05:59;;;;;;;26.42;7.30;;;;;;;;;;4876665;29;20045;-81
2023/11/28 01:08:31;;;;;;;19.15;7.45;;;;;;;;;;4870844;29;20067;-83
2023/11/28 01:11:03;;;;;;;17.85;7.43;;;;;;;;;;4887544;29;20052;-82
2023/11/28 01:13:33;;;;;;;20.50;7.57;;;;;;;;;;4877186;29;20048;-82
2023/11/28 01:16:04;;;;;;;29.80;7.80;;;;;;;;;;4881133;29;20057;-81
2023/11/28 01:18:34;;;;;;;20.00;8.05;;;;;;;;;;4894918;29;20044;-82
2023/11/28 01:21:05;;;;;;;28.00;7.07;;;;;;;;;;4877419;29;20177;-82
2023/11/28 01:23:36;;;;;;;19.85;6.78;;;;;;;;;;4878468;29;20060;-82
2023/11/28 01:26:06;;;;;;;15.98;6.13;;;;;;;;;;4896065;29;20076;-80
2023/11/28 01:28:36;;;;;;;13.48;5.35;;;;;;;;;;4894610;29;20067;-82
2023/11/28 01:31:07;;;;;;;12.93;5.82;;;;;;;;;;4879110;29;20056;-83
2023/11/28 01:33:37;;;;;;;9.90;4.90;;;;;;;;;;4877651;29;20061;-84
2023/11/28 01:36:08;;;;;;;14.48;5.15;;;;;;;;;;4893995;29;20055;-84
2023/11/28 01:38:40;;;;;;;8.18;4.78;;;;;;;;;;4895049;29;20071;-83
2023/11/28 01:41:10;;;;;;;12.65;5.90;;;;;;;;;;4877541;29;20079;-84
2023/11/28 01:43:41;;;;;;;14.75;6.35;;;;;;;;;;4877421;29;20071;-84
2023/11/28 01:46:12;;;;;;;11.60;5.65;;;;;;;;;;4894968;29;20056;-85
2023/11/28 01:48:43;;;;;;;13.40;5.65;;;;;;;;;;4877847;29;20079;-84
2023/11/28 01:51:13;;;;;;;9.45;5.30;;;;;;;;;;4898196;29;20060;-87
2023/11/28 01:53:43;;;;;;;10.55;5.75;;;;;;;;;;4881624;29;20053;-85
2023/11/28 01:56:15;;;;;;;12.93;6.25;;;;;;;;;;4896344;29;20075;-85
2023/11/28 01:58:46;;;;;;;12.82;6.40;;;;;;;;;;4897123;29;20384;-84
2023/11/28 02:01:20;;;;;;;12.05;5.75;;;;;;;;;;4882282;29;20045;-84
2023/11/28 02:03:53;;;;;;;12.60;6.63;;;;;;;;;;4882040;29;20080;-83
2023/11/28 02:06:24;;;;;;;11.32;6.70;;;;;;;;;;4897417;29;20052;-84
2023/11/28 02:08:54;;;;;;;15.10;7.57;;;;;;;;;;4900132;29;20056;-85
2023/11/28 02:11:25;;;;;;;14.82;8.05;;;;;;;;;;4900677;29;20511;-85
2023/11/28 02:13:56;;;;;;;15.38;7.85;;;;;;;;;;4883039;29;20056;-83
2023/11/28 02:16:27;;;;;;;17.52;7.28;;;;;;;;;;4883045;29;20056;-84
2023/11/28 02:18:58;;;;;;;15.15;8.43;;;;;;;;;;4882516;29;20060;-83
2023/11/28 02:21:28;;;;;;;16.33;7.60;;;;;;;;;;4900664;29;20052;-82
2023/11/28 02:23:58;;;;;;;14.30;7.15;;;;;;;;;;4882620;29;20052;-84
2023/11/28 02:26:29;;;;;;;13.88;7.65;;;;;;;;;;4883330;29;20059;-81
2023/11/28 02:28:59;;;;;;;17.10;7.13;;;;;;;;;;4900336;29;20052;-83
2023/11/28 02:31:30;;;;;;;15.80;7.10;;;;;;;;;;4882505;29;20068;-82
2023/11/28 02:34:01;;;;;;;14.23;6.60;;;;;;;;;;4899818;29;20060;-82
2023/11/28 02:36:34;;;;;;;11.70;6.00;;;;;;;;;;4882860;29;20052;-82
2023/11/28 02:39:08;;;;;;;9.60;5.15;;;;;;;;;;4900208;29;20049;-82
2023/11/28 02:41:38;;;;;;;12.77;6.20;;;;;;;;;;4900303;29;20048;-84
2023/11/28 02:44:08;;;;;;;11.07;5.88;;;;;;;;;;4898924;29;20056;-81
2023/11/28 02:46:39;;;;;;;11.10;5.78;;;;;;;;;;4900027;29;20063;-82
2023/11/28 02:49:10;;;;;;;12.50;5.45;;;;;;;;;;4899868;29;20066;-82
2023/11/28 02:51:40;;;;;;;9.65;5.63;;;;;;;;;;4882079;29;20504;-83
2023/11/28 02:54:10;;;;;;;10.60;5.55;;;;;;;;;;4882465;29;20053;-82
2023/11/28 02:56:40;;;;;;;13.10;5.45;;;;;;;;;;4882464;29;20147;-84
2023/11/28 02:59:13;;;;;;;10.70;5.35;;;;;;;;;;4883745;29;20052;-82
2023/11/28 03:01:44;;;;;;;8.38;5.10;;;;;;;;;;4882116;29;20064;-81
2023/11/28 03:04:15;;;;;;;8.35;4.95;;;;;;;;;;4900220;29;20048;-80
2023/11/28 03:06:45;;;;;;;10.73;6.07;;;;;;;;;;4900014;29;20428;-80
2023/11/28 03:09:16;;;;;;;10.10;5.00;;;;;;;;;;4899358;29;20071;-79
2023/11/28 03:11:48;;;;;;;;;;;;;;;;;;4900151;29;20051;-81
2023/11/28 03:14:19;;;;;;;12.18;5.07;;;;;;;;;;4899570;29;19923;-83
2023/11/28 03:16:50;;;;;;;11.55;5.78;;;;;;;;;;4882595;29;20496;-80
2023/11/28 03:19:21;;;;;;;10.88;5.80;;;;;;;;;;4898240;29;20044;-83
2023/11/28 03:21:53;;;;;;;11.30;5.15;;;;;;;;;;4899564;29;20056;-79
2023/11/28 03:24:23;;;;;;;10.10;5.05;;;;;;;;;;4882654;29;20052;-79
2023/11/28 03:26:54;;;;;;;10.57;4.10;;;;;;;;;;4881611;29;20064;-78
2023/11/28 03:29:24;;;;;;;9.63;4.47;;;;;;;;;;4899369;29;20424;-79
2023/11/28 03:31:56;;;;;;;;;;;;;;;;;;4899036;29;20052;-81
2023/11/28 03:34:26;;;;;;;9.63;4.43;;;;;;;;;;4881560;29;19923;-81
2023/11/28 03:36:57;;;;;;;7.93;4.47;;;;;;;;;;4899000;29;20083;-80
2023/11/28 03:39:29;;;;;;;8.18;4.43;;;;;;;;;;4898929;29;20049;-82
2023/11/28 03:42:00;;;;;;;8.93;5.05;;;;;;;;;;4899419;29;20048;-81
2023/11/28 03:44:31;;;;;;;8.65;4.70;;;;;;;;;;4881856;29;20496;-82
2023/11/28 03:47:01;;;;;;;8.98;4.47;;;;;;;;;;4898648;29;20408;-81
2023/11/28 03:49:31;;;;;;;8.93;5.07;;;;;;;;;;4898716;29;20503;-80
2023/11/28 03:52:01;;;;;;;8.50;4.40;;;;;;;;;;4898776;29;20495;-80
2023/11/28 03:54:32;;;;;;;9.88;4.80;;;;;;;;;;4881190;29;20419;-81
2023/11/28 03:57:02;;;;;;;11.00;5.25;;;;;;;;;;4880127;29;20063;-83
2023/11/28 03:59:32;;;;;;;12.20;5.13;;;;;;;;;;4898669;29;20053;-82
2023/11/28 04:02:02;;;;;;;10.07;4.85;;;;;;;;;;4898911;29;20052;-84
2023/11/28 04:04:35;;;;;;;;;;;;;;;;;;4880965;29;20385;-83
2023/11/28 04:07:06;;;;;;;10.48;4.85;;;;;;;;;;4881422;29;19997;-85
2023/11/28 04:09:36;;;;;;;11.10;5.05;;;;;;;;;;4880954;29;20056;-84
2023/11/28 04:12:06;;;;;;;10.43;4.60;;;;;;;;;;4895958;29;20063;-85
2023/11/28 04:14:37;;;;;;;9.30;4.53;;;;;;;;;;4881709;29;20126;-86
2023/11/28 04:17:07;;;;;;;9.13;5.15;;;;;;;;;;4880811;29;20083;-85
2023/11/28 04:19:37;;;;;;;9.32;4.53;;;;;;;;;;4898112;29;20051;-85
2023/11/28 04:22:10;;;;;;;10.60;4.80;;;;;;;;;;4898171;29;20052;-84
2023/11/28 04:24:42;;;;;;;9.85;5.25;;;;;;;;;;4880800;29;20052;-82
2023/11/28 04:27:15;;;;;;;11.20;5.03;;;;;;;;;;4880589;29;20531;-82
2023/11/28 04:29:47;;;;;;;9.40;4.75;;;;;;;;;;4880913;29;20056;-84
2023/11/28 04:32:18;;;;;;;10.25;4.47;;;;;;;;;;4897977;29;20048;-84
2023/11/28 04:34:49;;;;;;;8.27;4.22;;;;;;;;;;4881041;29;20057;-83
2023/11/28 04:37:20;;;;;;;8.52;4.65;;;;;;;;;;4881131;29;20056;-81
2023/11/28 04:39:53;;;;;;;9.80;4.55;;;;;;;;;;4880791;29;20063;-82
2023/11/28 04:42:24;;;;;;;9.32;4.68;;;;;;;;;;4880844;29;20056;-83
2023/11/28 04:44:55;;;;;;;9.98;4.72;;;;;;;;;;4897812;29;20059;-84
2023/11/28 04:47:25;;;;;;;11.55;5.47;;;;;;;;;;4880243;29;20057;-83
2023/11/28 04:49:56;;;;;;;11.80;5.03;;;;;;;;;;4898245;29;20392;-85
2023/11/28 04:52:26;;;;;;;11.35;4.78;;;;;;;;;;4880124;29;20052;-82
2023/11/28 04:54:56;;;;;;;11.40;5.03;;;;;;;;;;4880351;29;20083;-80
2023/11/28 04:57:28;;;;;;;8.30;4.47;;;;;;;;;;4880018;29;20404;-82
2023/11/28 04:59:58;;;;;;;16.05;4.60;;;;;;;;;;4897091;29;20064;-83
2023/11/28 05:02:29;;;;;;;8.23;3.70;;;;;;;;;;4898089;29;20072;-83
2023/11/28 05:04:59;;;;;;;8.60;3.38;;;;;;;;;;4879965;29;20057;-82
2023/11/28 05:07:30;;;;;;;8.15;3.40;;;;;;;;;;4879917;29;20053;-81
2023/11/28 05:10:03;;;;;;;9.32;3.50;;;;;;;;;;4879997;29;20053;-81
2023/11/28 05:12:35;;;;;;;7.90;3.65;;;;;;;;;;4880517;29;20063;-82
2023/11/28 05:15:06;;;;;;;7.40;4.13;;;;;;;;;;4880329;29;20057;-84
2023/11/28 05:17:37;;;;;;;10.93;5.18;;;;;;;;;;4880015;29;20059;-83
2023/11/28 05:20:08;;;;;;;11.57;3.97;;;;;;;;;;4880402;29;20053;-84
2023/11/28 05:22:39;;;;;;;;;;;;;;;;;;4880583;29;20056;-84
2023/11/28 05:25:11;;;;;;;8.93;4.03;;;;;;;;;;4881803;29;19931;-86
2023/11/28 05:27:42;;;;;;;7.22;4.00;;;;;;;;;;4884352;29;20068;-85
2023/11/28 05:30:13;;;;;;;9.90;4.05;;;;;;;;;;4884224;29;20056;-85
2023/11/28 05:32:43;;;;;;;9.70;3.75;;;;;;;;;;4883961;29;20063;-85
2023/11/28 05:35:14;;;;;;;7.22;3.70;;;;;;;;;;4883892;29;20067;-84
2023/11/28 05:37:45;;;;;;;11.93;4.25;;;;;;;;;;4883811;29;20053;-85
2023/11/28 05:40:18;;;;;;;7.10;3.80;;;;;;;;;;4883265;29;20056;-86
2023/11/28 05:42:48;;;;;;;7.57;4.07;;;;;;;;;;4892911;29;20060;-84
2023/11/28 05:45:18;;;;;;;7.00;3.75;;;;;;;;;;4868624;29;20397;-86
2023/11/28 05:47:49;;;;;;;7.85;3.97;;;;;;;;;;4883977;29;20506;-84
2023/11/28 05:50:22;;;;;;;12.88;3.90;;;;;;;;;;4883778;29;20064;-85
2023/11/28 05:52:53;;;;;;;6.22;3.80;;;;;;;;;;4899290;29;20060;-85
2023/11/28 05:55:24;;;;;;;13.65;4.00;;;;;;;;;;4883723;29;20510;-84
2023/11/28 05:57:55;;;;;;;9.13;3.80;;;;;;;;;;4883923;29;20052;-86
2023/11/28 06:00:26;;;;;;;7.43;3.63;;;;;;;;;;4882722;29;20060;-87
2023/11/28 06:02:57;;;;;;;7.30;3.75;;;;;;;;;;4882758;29;20428;-86
2023/11/28 06:05:27;;;;;;;7.70;3.45;;;;;;;;;;4883523;29;20053;-86
2023/11/28 06:07:58;;;;;;;11.95;4.47;;;;;;;;;;4883398;29;20059;-84
2023/11/28 06:10:28;;;;;;;7.82;3.85;;;;;;;;;;4883422;29;20049;-85
2023/11/28 06:13:01;;;;;;;11.38;3.67;;;;;;;;;;4882728;29;20052;-85
2023/11/28 06:15:31;;;;;;;8.60;4.30;;;;;;;;;;4883411;29;20060;-84
2023/11/28 06:18:01;;;;;;;12.05;4.05;;;;;;;;;;4883210;29;20430;-84
2023/11/28 06:20:32;;;;;;;8.40;4.10;;;;;;;;;;4882918;29;20057;-84
2023/11/28 06:23:02;;;;;;;9.35;4.93;;;;;;;;;;4898132;29;20048;-86
2023/11/28 06:25:32;;;;;;;8.30;4.82;;;;;;;;;;4900635;29;20052;-85
2023/11/28 06:28:02;;;;;;;13.15;5.15;;;;;;;;;;4882406;29;20052;-86
2023/11/28 06:30:34;;;;;;;12.10;5.63;;;;;;;;;;4883004;29;20496;-85
2023/11/28 06:33:04;;;;;;;10.98;5.70;;;;;;;;;;4900168;29;20511;-86
2023/11/28 06:35:34;;;;;;;11.32;5.68;;;;;;;;;;4882294;29;20056;-85
2023/11/28 06:38:05;;;;;;;11.50;5.65;;;;;;;;;;4900160;29;20562;-86
2023/11/28 06:40:35;;;;;;;10.65;6.03;;;;;;;;;;4899947;29;20048;-82
2023/11/28 06:43:05;;;;;;;11.75;5.55;;;;;;;;;;4898713;29;20063;-81
2023/11/28 06:45:35;;;;;;;10.70;5.57;;;;;;;;;;4898700;29;20064;-82
2023/11/28 06:48:07;;;;;;;12.48;5.57;;;;;;;;;;4900382;29;20416;-84
2023/11/28 06:50:38;;;;;;;11.25;5.72;;;;;;;;;;4869029;29;20061;-83
2023/11/28 06:53:07;;;;;;;12.27;5.65;;;;;;;;;;4900108;29;20143;-83
2023/11/28 06:55:37;;;;;;;13.18;6.30;;;;;;;;;;4900171;29;20051;-83
2023/11/28 06:58:07;;;;;;;13.57;5.95;;;;;;;;;;4884178;29;20055;-83
2023/11/28 07:00:38;;;;;;;12.25;5.78;;;;;;;;;;4900361;29;20048;-85
2023/11/28 07:03:08;;;;;;;14.13;6.13;;;;;;;;;;4897511;29;20057;-85
2023/11/28 07:05:40;;;;;;;10.50;5.53;;;;;;;;;;4900000;29;20060;-84
2023/11/28 07:08:11;;;;;;;12.98;5.75;;;;;;;;;;4898340;29;20052;-84
2023/11/28 07:10:41;;;;;;;11.23;5.70;;;;;;;;;;4898899;29;20063;-86
2023/11/28 07:13:11;;;;;;;10.40;5.53;;;;;;;;;;4899355;29;20044;-84
2023/11/28 07:15:42;;;;;;;9.38;4.78;;;;;;;;;;4899861;29;20049;-85
2023/11/28 07:18:15;;;;;;;9.85;4.00;;;;;;;;;;4899616;29;20056;-86
2023/11/28 07:20:49;;;;;;;8.20;4.38;;;;;;;;;;4881982;29;20079;-86
2023/11/28 07:23:20;;;;;;;10.30;4.47;;;;;;;;;;4899028;29;20040;-82
2023/11/28 07:25:50;;;;;;;10.18;5.05;;;;;;;;;;4898282;29;20052;-80
2023/11/28 07:28:21;;;;;;;10.82;5.55;;;;;;;;;;4899145;29;20052;-83
2023/11/28 07:30:51;;;;;;;11.32;6.05;;;;;;;;;;4898330;29;20071;-84
2023/11/28 07:33:21;;;;;;;10.35;5.70;;;;;;;;;;4899267;29;20044;-84
2023/11/28 07:35:53;;;;;;;10.52;5.82;;;;;;;;;;4897868;29;20511;-80
2023/11/28 07:38:25;;;;;;;7.85;4.38;;;;;;;;;;4898981;29;20424;-82
2023/11/28 07:40:55;;;;;;;11.82;5.05;;;;;;;;;;4898507;29;20067;-81
2023/11/28 07:43:25;;;;;;;12.15;5.97;;;;;;;;;;4898993;29;20049;-84
2023/11/28 07:45:56;;;;;;;11.98;5.50;;;;;;;;;;4882443;29;20055;-85
2023/11/28 07:48:27;;;;;;;11.23;4.90;;;;;;;;;;4898069;29;20396;-84
2023/11/28 07:50:58;;;;;;;8.63;4.15;;;;;;;;;;4899086;29;20040;-84
2023/11/28 07:53:28;;;;;;;8.98;4.00;;;;;;;;;;4899239;29;20061;-85
2023/11/28 07:55:58;;;;;;;6.25;3.13;;;;;;;;;;4899041;29;20048;-84
2023/11/28 07:58:29;;;;;;;7.85;3.75;;;;;;;;;;4896617;29;20056;-84
2023/11/28 08:01:00;;;;;;;7.15;3.80;;;;;;;;;;4881724;29;20060;-86
2023/11/28 08:03:31;;;;;;;8.07;3.90;;;;;;;;;;4898706;29;20476;-85
2023/11/28 08:06:03;;;;;;;7.57;3.50;;;;;;;;;;4898977;29;20056;-85
2023/11/28 08:08:34;;;;;;;7.07;3.53;;;;;;;;;;4898712;29;20056;-84
2023/11/28 08:11:04;;;;;;;8.07;3.38;;;;;;;;;;4898164;29;20464;-82
2023/11/28 08:13:35;;;;;;;4.65;2.30;;;;;;;;;;4882368;29;20044;-84
2023/11/28 08:16:05;;;;;;;6.80;2.05;;;;;;;;;;4898469;29;20055;-86
2023/11/28 08:18:36;;;;;;;3.67;1.30;;;;;;;;;;4897999;29;20057;-85
2023/11/28 08:21:11;;;;;;;3.70;1.63;;;;;;;;;;4898494;29;20053;-85
2023/11/28 08:23:45;;;;;;;3.65;1.60;;;;;;;;;;4898466;29;20049;-85
2023/11/28 08:26:16;;;;;;;6.10;2.50;;;;;;;;;;4881158;29;20075;-84
2023/11/28 08:28:47;;;;;;;5.60;2.20;;;;;;;;;;4898728;29;20053;-85
2023/11/28 08:31:18;;;;;;;5.63;1.83;;;;;;;;;;4896350;29;20060;-86
2023/11/28 08:33:49;;;;;;;3.78;1.58;;;;;;;;;;4897654;29;20387;-84
2023/11/28 08:36:19;;;;;;;4.72;1.70;;;;;;;;;;4881142;29;20059;-85
2023/11/28 08:38:50;;;;;;;7.97;2.40;;;;;;;;;;4897919;29;20071;-86
2023/11/28 08:41:21;;;;;;;6.07;2.08;;;;;;;;;;4898213;29;20075;-86
2023/11/28 08:43:51;;;;;;;7.18;1.90;;;;;;;;;;4881516;29;20056;-86
2023/11/28 08:46:21;;;;;;;6.07;1.67;;;;;;;;;;4898187;29;20052;-85
2023/11/28 08:48:51;;;;;;;4.72;1.90;;;;;;;;;;4897919;29;20068;-86
2023/11/28 08:51:21;;;;;;;6.78;2.17;;;;;;;;;;4882041;29;20056;-85
2023/11/28 08:53:51;;;;;;;5.95;2.10;;;;;;;;;;4881828;29;20060;-85
2023/11/28 08:56:21;;;;;;;3.88;2.15;;;;;;;;;;4898248;29;20040;-85
2023/11/28 08:58:52;;;;;;;6.90;1.88;;;;;;;;;;4897666;29;20052;-85
2023/11/28 09:01:24;;;;;;;4.68;1.60;;;;;;;;;;4897706;29;20049;-86
2023/11/28 09:03:54;;;;;;;7.25;1.70;;;;;;;;;;4897441;29;20511;-85
2023/11/28 09:06:24;;;;;;;4.68;1.38;;;;;;;;;;4879863;29;20053;-85
2023/11/28 09:08:56;;;;;;;3.92;1.58;;;;;;;;;;4881978;29;20362;-85
2023/11/28 09:11:26;;;;;;;5.68;1.85;;;;;;;;;;4881045;29;20060;-85
2023/11/28 09:13:56;;;;;;;3.42;1.67;;;;;;;;;;4897552;29;20059;-84
2023/11/28 09:16:26;;;;;;;6.07;1.67;;;;;;;;;;4888700;29;20049;-86
2023/11/28 09:18:56;;;;;;;7.35;1.60;;;;;;;;;;4867308;29;20056;-85
2023/11/28 09:21:27;;;;;;;3.10;1.77;;;;;;;;;;4888866;29;20515;-84
2023/11/28 09:23:56;;;;;;;3.17;1.58;;;;;;;;;;4897410;29;20050;-83
2023/11/28 09:26:26;;;;;;;3.80;1.52;;;;;;;;;;4888722;29;20049;-82
2023/11/28 09:28:57;;;;;;;4.97;1.52;;;;;;;;;;4893834;29;20440;-83
2023/11/28 09:31:28;;;;;;;2.55;1.27;;;;;;;;;;4878435;29;20052;-83
2023/11/28 09:33:59;;;;;;;;;;;;;;;;;;4878969;29;20519;-83
2023/11/28 09:36:30;;;;;;;5.55;1.55;;;;;;;;;;4861095;29;20307;-81
2023/11/28 09:39:05;;;;;;;4.28;1.73;;;;;;;;;;4876397;29;20492;-83
2023/11/28 09:41:38;;;;;;;4.13;1.55;;;;;;;;;;4884992;29;20505;-82
2023/11/28 09:44:17;;;;;;;4.65;1.80;;;;;;;;;;4891062;29;20052;-82
2023/11/28 09:46:51;;;;;;;5.50;1.67;;;;;;;;;;4897464;29;20488;-82
2023/11/28 09:49:24;;;;;;;4.75;1.15;;;;;;;;;;4897112;29;20060;-83
2023/11/28 09:51:57;;;;;;;8.75;1.52;;;;;;;;;;4897110;29;20048;-83
2023/11/28 09:54:29;;;;;;;2.08;0.90;;;;;;;;;;4897180;29;20052;-81
2023/11/28 09:57:01;;;;;;;2.72;0.90;;;;;;;;;;4897385;29;20056;-83
2023/11/28 09:59:31;;;;;;;;;;;;;;;;;;4898151;29;20048;-83
2023/11/28 10:02:03;;;;;;;3.03;1.02;;;;;;;;;;4897419;29;19930;-81
2023/11/28 10:04:38;;;;;;;1.75;0.90;;;;;;;;;;4897303;29;20056;-82
2023/11/28 10:07:10;;;;;;;2.88;1.15;;;;;;;;;;4897317;29;20045;-82
2023/11/28 10:09:47;;;;;;;3.70;1.17;;;;;;;;;;4896952;29;20053;-80
2023/11/28 10:12:17;;;;;;;2.40;1.38;;;;;;;;;;4899602;29;20132;-81
2023/11/28 10:14:47;;;;;;;5.45;3.20;;;;;;;;;;4892133;29;20622;-79
2023/11/28 10:17:17;;;;;;;2.45;1.33;;;;;;;;;;4879861;29;20049;-81
2023/11/28 10:19:48;;;;;;;5.28;1.45;;;;;;;;;;4879414;29;20052;-82
2023/11/28 10:22:18;;;;;;;2.83;1.60;;;;;;;;;;4880982;29;20056;-84
2023/11/28 10:24:49;;;;;;;5.72;2.13;;;;;;;;;;4880543;29;20052;-83
2023/11/28 10:27:20;;;;;;;6.18;2.83;;;;;;;;;;4863543;29;20053;-83
2023/11/28 10:29:53;;;;;;;7.18;2.28;;;;;;;;;;4880546;29;20060;-83
2023/11/28 10:32:31;;;;;;;6.38;2.20;;;;;;;;;;4881088;29;20076;-82
2023/11/28 10:35:01;;;;;;;5.43;1.70;;;;;;;;;;4887796;29;20072;-82
2023/11/28 10:37:35;;;;;;;6.53;2.08;;;;;;;;;;4865057;29;20060;-84
2023/11/28 10:40:19;;;;;;;3.72;2.42;;;;;;;;;;4882373;29;20049;-83
2023/11/28 10:42:49;;;;;;;6.85;2.55;;;;;;;;;;4858285;29;20056;-84
2023/11/28 10:45:22;;;;;;;3.10;1.95;;;;;;;;;;4881639;29;20045;-85
2023/11/28 10:47:53;;;;;;;3.67;1.35;;;;;;;;;;4881732;29;20057;-84
2023/11/28 10:50:24;;;;;;;4.88;1.48;;;;;;;;;;4881827;29;20053;-86
2023/11/28 10:52:58;;;;;;;3.28;1.52;;;;;;;;;;4881258;29;20049;-85
2023/11/28 10:55:33;;;;;;;1.90;1.00;;;;;;;;;;4882083;29;20041;-83
2023/11/28 10:58:05;;;;;;;3.42;1.05;;;;;;;;;;4864466;29;20377;-83
2023/11/28 11:00:40;;;;;;;1.92;0.98;;;;;;;;;;4864917;29;20056;-84
2023/11/28 11:03:15;;;;;;;7.07;2.25;;;;;;;;;;4881474;29;20080;-83
2023/11/28 11:05:46;;;;;;;8.52;2.90;;;;;;;;;;4873690;29;20049;-85
2023/11/28 11:08:20;;;;;;;3.70;1.40;;;;;;;;;;4881440;29;20481;-84
2023/11/28 11:10:51;;;;;;;2.65;1.20;;;;;;;;;;4881704;29;20045;-84
2023/11/28 11:13:54;;;;;;;5.40;1.00;;;;;;;;;;4881724;29;20045;-84
2023/11/28 11:16:38;;;;;;;1.48;0.80;;;;;;;;;;4865044;29;20071;-83
2023/11/28 11:19:10;;;;;;;4.03;1.17;;;;;;;;;;4881151;29;20041;-84
2023/11/28 11:21:48;;;;;;;1.83;0.90;;;;;;;;;;4880611;29;20041;-83
2023/11/28 11:24:21;;;;;;;1.55;0.80;;;;;;;;;;4880447;29;20049;-83
2023/11/28 11:26:52;;;;;;;2.15;0.80;;;;;;;;;;4848691;29;20053;-84
2023/11/28 11:29:26;;;;;;;;;;;;;;;;;;4881463;29;20045;-83
2023/11/28 11:31:57;;;;;;;1.67;0.93;;;;;;;;;;4881130;29;19924;-83
2023/11/28 11:34:37;;;;;;;;;;;;;;;;;;4881590;29;20100;-83
2023/11/28 11:37:15;;;;;;;0.98;0.70;;;;;;;;;;4882445;29;20291;-85
2023/11/28 11:39:50;;;;;;;1.42;0.73;;;;;;;;;;4868979;29;20057;-83
2023/11/28 11:42:22;;;;;;;1.30;0.70;;;;;;;;;;4865518;29;20052;-82
2023/11/28 11:45:12;;;;;;;1.95;0.65;;;;;;;;;;4864325;29;20497;-82
2023/11/28 11:47:43;;;;;;;1.95;0.80;;;;;;;;;;4880731;29;20057;-83
2023/11/28 11:50:19;;;;;;;1.00;0.60;;;;;;;;;;4865781;29;20049;-82
2023/11/28 11:53:07;;;;;;;2.75;1.00;;;;;;;;;;4881892;29;20056;-83
2023/11/28 11:55:38;;;;;;;2.33;1.10;;;;;;;;;;4882403;29;20524;-83
2023/11/28 11:58:09;;;;;;;5.47;1.40;;;;;;;;;;4883233;29;20049;-81
2023/11/28 12:00:45;;;;;;;2.67;0.80;;;;;;;;;;4884100;29;20060;-82
2023/11/28 12:03:17;;;;;;;2.45;0.93;;;;;;;;;;4881614;29;20519;-82
2023/11/28 12:05:52;;;;;;;2.55;1.00;;;;;;;;;;4874507;29;20060;-81
2023/11/28 12:08:23;;;;;;;4.45;2.38;;;;;;;;;;4900282;29;20416;-81
2023/11/28 12:11:06;;;;;;;1.77;0.73;;;;;;;;;;4898958;29;20052;-82
2023/11/28 12:13:38;;;;;;;2.28;1.10;;;;;;;;;;4900957;29;20124;-82
2023/11/28 12:16:13;;;;;;;2.20;0.82;;;;;;;;;;4887103;29;20500;-83
2023/11/28 12:18:43;;;;;;;2.03;1.00;;;;;;;;;;4879801;29;20056;-81
2023/11/28 12:21:13;;;;;;;7.32;1.10;;;;;;;;;;4881347;29;20053;-81
2023/11/28 12:23:43;;;;;;;2.30;1.00;;;;;;;;;;4880199;29;20056;-82
2023/11/28 12:26:15;;;;;;;4.30;1.17;;;;;;;;;;4879810;29;20052;-82
2023/11/28 12:28:46;;;;;;;2.78;1.15;;;;;;;;;;4871314;29;20045;-82
2023/11/28 12:31:17;;;;;;;3.17;1.45;;;;;;;;;;4880676;29;20060;-81
2023/11/28 12:33:47;;;;;;;2.22;1.30;;;;;;;;;;4878926;29;20044;-80
2023/11/28 12:36:25;;;;;;;3.42;1.33;;;;;;;;;;4878885;29;20055;-80
2023/11/28 12:38:58;;;;;;;3.72;1.60;;;;;;;;;;4879093;29;20056;-80
2023/11/28 12:41:39;;;;;;;8.68;4.97;;;;;;;;;;4879060;29;20511;-79
2023/11/28 12:44:12;;;;;;;8.52;4.68;;;;;;;;;;4878693;29;20045;-77
2023/11/28 12:46:42;;;;;;;7.15;4.03;;;;;;;;;;4878192;29;20053;-78
2023/11/28 12:49:12;;;;;;;9.88;5.47;;;;;;;;;;4897338;29;20427;-78
2023/11/28 12:51:46;;;;;;;5.93;3.42;;;;;;;;;;4897332;29;20044;-78
2023/11/28 12:54:21;;;;;;;4.07;1.83;;;;;;;;;;4897683;29;20044;-79
2023/11/28 12:56:55;;;;;;;2.45;1.60;;;;;;;;;;4897515;29;20093;-78
2023/11/28 12:59:28;;;;;;;4.30;2.08;;;;;;;;;;4896609;29;20051;-78
2023/11/28 13:01:58;;;;;;;7.55;1.83;;;;;;;;;;4888052;29;20055;-78
2023/11/28 13:04:29;;;;;;;4.72;2.25;;;;;;;;;;4896964;29;20538;-78
2023/11/28 13:06:58;;;;;;;4.13;1.95;;;;;;;;;;4880527;29;20053;-79
2023/11/28 13:09:49;;;;;;;3.97;2.00;;;;;;;;;;4883717;29;20396;-78
2023/11/28 13:12:20;;;;;;;5.20;2.08;;;;;;;;;;4897104;29;20051;-78
2023/11/28 13:14:51;;;;;;;4.38;2.40;;;;;;;;;;4897249;29;20055;-78
2023/11/28 13:17:22;;;;;;;3.72;1.90;;;;;;;;;;4880576;29;20052;-79
2023/11/28 13:19:53;;;;;;;3.28;1.65;;;;;;;;;;4897335;29;20053;-79
2023/11/28 13:22:23;;;;;;;3.03;1.77;;;;;;;;;;4896455;29;20048;-80
2023/11/28 13:24:54;;;;;;;6.60;1.88;;;;;;;;;;4897165;29;20049;-80
2023/11/28 13:27:23;;;;;;;4.63;2.35;;;;;;;;;;4880829;29;20057;-79
2023/11/28 13:29:55;;;;;;;3.28;1.75;;;;;;;;;;4896717;29;20060;-79
2023/11/28 13:32:25;;;;;;;2.50;1.35;;;;;;;;;;4897093;29;20053;-78
2023/11/28 13:34:56;;;;;;;4.03;1.45;;;;;;;;;;4896900;29;20140;-78
2023/11/28 13:37:27;;;;;;;3.60;1.65;;;;;;;;;;4892167;29;20064;-78
2023/11/28 13:39:57;;;;;;;3.00;1.13;;;;;;;;;;4876931;29;20064;-79
2023/11/28 13:42:27;;;;;;;2.88;1.40;;;;;;;;;;4896155;29;20048;-79
2023/11/28 13:44:59;;;;;;;4.25;1.33;;;;;;;;;;4879909;29;20068;-79
2023/11/28 13:47:29;;;;;;;3.97;1.33;;;;;;;;;;4900119;29;20053;-77
2023/11/28 13:50:00;;;;;;;2.42;1.25;;;;;;;;;;4900364;29;20063;-79
2023/11/28 13:52:30;;;;;;;2.72;1.30;;;;;;;;;;4883276;29;20053;-80
2023/11/28 13:55:00;;;;;;;2.90;1.30;;;;;;;;;;4883574;29;20061;-79
2023/11/28 13:57:30;;;;;;;4.05;1.25;;;;;;;;;;4900554;29;20056;-80
2023/11/28 14:00:00;;;;;;;2.72;1.20;;;;;;;;;;4900329;29;20067;-79
2023/11/28 14:02:34;;;;;;;4.28;1.30;;;;;;;;;;4902782;29;20056;-78
2023/11/28 14:05:15;;;;;;;2.85;1.20;;;;;;;;;;4900364;29;20126;-80
2023/11/28 14:07:46;;;;;;;3.63;1.63;;;;;;;;;;4899919;29;20049;-78
2023/11/28 14:10:16;;;;;;;1.77;0.98;;;;;;;;;;4882785;29;20432;-80
2023/11/28 14:12:46;;;;;;;4.50;1.30;;;;;;;;;;4899618;29;20045;-79
2023/11/28 14:15:16;;;;;;;4.80;1.45;;;;;;;;;;4881540;29;20056;-78
2023/11/28 14:17:46;;;;;;;2.55;1.33;;;;;;;;;;4890384;29;20519;-77
2023/11/28 14:20:18;;;;;;;3.13;1.42;;;;;;;;;;4899268;29;20060;-78
2023/11/28 14:22:48;;;;;;;1.50;1.00;;;;;;;;;;4899644;29;20052;-78
2023/11/28 14:25:21;;;;;;;2.85;1.00;;;;;;;;;;4899683;29;20053;-79
2023/11/28 14:27:51;;;;;;;3.20;1.00;;;;;;;;;;4898980;29;20511;-80
2023/11/28 14:30:22;;;;;;;1.58;1.00;;;;;;;;;;4898551;29;20413;-79
2023/11/28 14:32:53;;;;;;;3.75;1.67;;;;;;;;;;4899305;29;20385;-77
2023/11/28 14:35:25;;;;;;;4.63;1.10;;;;;;;;;;4883355;29;20060;-78
2023/11/28 14:37:55;;;;;;;1.60;0.90;;;;;;;;;;4899042;29;20048;-79
2023/11/28 14:40:25;;;;;;;3.90;1.10;;;;;;;;;;4899382;29;20051;-78
2023/11/28 14:42:55;;;;;;;4.05;1.05;;;;;;;;;;4898742;29;20045;-79
2023/11/28 14:45:25;;;;;;;2.55;1.45;;;;;;;;;;4899172;29;20049;-79
2023/11/28 14:47:55;;;;;;;3.05;1.08;;;;;;;;;;4895965;29;20057;-79
2023/11/28 14:50:25;;;;;;;3.47;1.35;;;;;;;;;;4880242;29;20061;-81
2023/11/28 14:52:57;;;;;;;3.78;1.50;;;;;;;;;;4880062;29;20393;-81
2023/11/28 14:55:28;;;;;;;3.70;1.42;;;;;;;;;;4879214;29;20064;-81
2023/11/28 14:57:57;;;;;;;2.58;1.30;;;;;;;;;;4877130;29;20060;-82
2023/11/28 15:00:28;;;;;;;2.38;1.30;;;;;;;;;;4860536;29;20052;-79
2023/11/28 15:02:58;;;;;;;2.10;1.10;;;;;;;;;;4886210;29;20420;-83
2023/11/28 15:05:28;;;;;;;2.72;1.17;;;;;;;;;;4880206;29;20496;-80